sensor_id;sensor_type;location;lat;lon;timestamp;temperature;humidity
71837;DHT22;59686;51.716;7.016;2023-02-02T00:01:20;7.80;90.80
71837;DHT22;59686;51.716;7.016;2023-02-02T00:03:46;7.80;90.90
71837;DHT22;59686;51.716;7.016;2023-02-02T00:06:16;7.80;91.00
71837;DHT22;59686;51.716;7.016;2023-02-02T00:08:41;7.80;90.90
71837;DHT22;59686;51.716;7.016;2023-02-02T00:11:07;7.80;91.00
71837;DHT22;59686;51.716;7.016;2023-02-02T00:13:33;7.80;90.90
71837;DHT22;59686;51.716;7.016;2023-02-02T00:19:01;7.80;91.00
71837;DHT22;59686;51.716;7.016;2023-02-02T00:21:28;7.80;90.90
71837;DHT22;59686;51.716;7.016;2023-02-02T00:23:54;7.90;90.90
71837;DHT22;59686;51.716;7.016;2023-02-02T00:26:20;7.80;90.90
71837;DHT22;59686;51.716;7.016;2023-02-02T00:28:59;7.90;90.90
71837;DHT22;59686;51.716;7.016;2023-02-02T00:31:24;7.90;90.90
71837;DHT22;59686;51.716;7.016;2023-02-02T00:33:50;7.90;90.90
71837;DHT22;59686;51.716;7.016;2023-02-02T00:36:17;7.90;90.90
71837;DHT22;59686;51.716;7.016;2023-02-02T00:38:43;7.80;91.00
71837;DHT22;59686;51.716;7.016;2023-02-02T00:41:09;7.90;91.00
71837;DHT22;59686;51.716;7.016;2023-02-02T00:43:35;7.80;91.10
71837;DHT22;59686;51.716;7.016;2023-02-02T00:46:01;7.80;91.10
71837;DHT22;59686;51.716;7.016;2023-02-02T00:48:26;7.80;91.00
71837;DHT22;59686;51.716;7.016;2023-02-02T00:50:52;7.80;91.20
71837;DHT22;59686;51.716;7.016;2023-02-02T00:53:18;7.80;91.20
71837;DHT22;59686;51.716;7.016;2023-02-02T00:55:44;7.90;91.10
71837;DHT22;59686;51.716;7.016;2023-02-02T00:58:25;7.90;91.20
71837;DHT22;59686;51.716;7.016;2023-02-02T01:00:51;7.80;91.10
71837;DHT22;59686;51.716;7.016;2023-02-02T01:03:17;7.80;91.10
71837;DHT22;59686;51.716;7.016;2023-02-02T01:05:42;7.80;91.10
71837;DHT22;59686;51.716;7.016;2023-02-02T01:08:09;7.90;91.30
71837;DHT22;59686;51.716;7.016;2023-02-02T01:10:37;7.70;91.20
71837;DHT22;59686;51.716;7.016;2023-02-02T01:13:03;7.90;91.40
71837;DHT22;59686;51.716;7.016;2023-02-02T01:15:29;7.80;91.10
71837;DHT22;59686;51.716;7.016;2023-02-02T01:17:57;7.90;91.20
71837;DHT22;59686;51.716;7.016;2023-02-02T01:20:23;7.90;91.10
71837;DHT22;59686;51.716;7.016;2023-02-02T01:22:48;7.80;91.10
71837;DHT22;59686;51.716;7.016;2023-02-02T01:25:15;7.90;91.20
71837;DHT22;59686;51.716;7.016;2023-02-02T01:27:40;7.80;91.20
71837;DHT22;59686;51.716;7.016;2023-02-02T01:30:07;7.80;91.30
71837;DHT22;59686;51.716;7.016;2023-02-02T01:32:32;7.80;91.30
71837;DHT22;59686;51.716;7.016;2023-02-02T01:34:58;7.80;91.30
71837;DHT22;59686;51.716;7.016;2023-02-02T01:37:24;7.80;91.40
71837;DHT22;59686;51.716;7.016;2023-02-02T01:39:49;7.80;91.40
71837;DHT22;59686;51.716;7.016;2023-02-02T01:42:21;7.80;91.60
71837;DHT22;59686;51.716;7.016;2023-02-02T01:47:46;7.80;91.70
71837;DHT22;59686;51.716;7.016;2023-02-02T01:50:33;7.80;91.80
71837;DHT22;59686;51.716;7.016;2023-02-02T01:53:01;7.80;91.80
71837;DHT22;59686;51.716;7.016;2023-02-02T01:55:29;7.80;91.80
71837;DHT22;59686;51.716;7.016;2023-02-02T02:00:24;7.90;92.00
71837;DHT22;59686;51.716;7.016;2023-02-02T02:02:56;7.90;92.00
71837;DHT22;59686;51.716;7.016;2023-02-02T02:05:41;7.90;92.10
71837;DHT22;59686;51.716;7.016;2023-02-02T02:08:24;7.80;92.20
71837;DHT22;59686;51.716;7.016;2023-02-02T02:10:51;7.90;92.10
71837;DHT22;59686;51.716;7.016;2023-02-02T02:13:18;7.90;92.10
71837;DHT22;59686;51.716;7.016;2023-02-02T02:15:54;7.80;92.20
71837;DHT22;59686;51.716;7.016;2023-02-02T02:21:24;7.90;92.30
71837;DHT22;59686;51.716;7.016;2023-02-02T02:32:51;7.90;92.20
71837;DHT22;59686;51.716;7.016;2023-02-02T02:35:48;7.90;92.20
71837;DHT22;59686;51.716;7.016;2023-02-02T02:38:40;7.90;92.20
71837;DHT22;59686;51.716;7.016;2023-02-02T02:41:12;7.90;92.40
71837;DHT22;59686;51.716;7.016;2023-02-02T02:43:44;7.90;92.30
71837;DHT22;59686;51.716;7.016;2023-02-02T02:46:11;8.00;92.30
71837;DHT22;59686;51.716;7.016;2023-02-02T02:48:37;7.90;92.10
71837;DHT22;59686;51.716;7.016;2023-02-02T02:51:40;7.90;92.20
71837;DHT22;59686;51.716;7.016;2023-02-02T02:54:06;7.90;92.40
71837;DHT22;59686;51.716;7.016;2023-02-02T03:05:02;7.90;92.30
71837;DHT22;59686;51.716;7.016;2023-02-02T03:07:34;7.90;92.50
71837;DHT22;59686;51.716;7.016;2023-02-02T03:10:06;7.90;92.20
71837;DHT22;59686;51.716;7.016;2023-02-02T03:12:40;7.90;92.30
71837;DHT22;59686;51.716;7.016;2023-02-02T03:15:07;7.90;92.40
71837;DHT22;59686;51.716;7.016;2023-02-02T03:17:33;7.90;92.10
71837;DHT22;59686;51.716;7.016;2023-02-02T03:19:59;7.90;92.00
71837;DHT22;59686;51.716;7.016;2023-02-02T03:22:24;7.90;92.10
71837;DHT22;59686;51.716;7.016;2023-02-02T03:24:50;7.90;92.30
71837;DHT22;59686;51.716;7.016;2023-02-02T03:27:15;7.90;92.20
71837;DHT22;59686;51.716;7.016;2023-02-02T03:29:41;7.90;92.20
71837;DHT22;59686;51.716;7.016;2023-02-02T03:32:07;7.90;92.20
71837;DHT22;59686;51.716;7.016;2023-02-02T03:34:32;7.90;92.20
71837;DHT22;59686;51.716;7.016;2023-02-02T03:37:07;7.90;92.20
71837;DHT22;59686;51.716;7.016;2023-02-02T03:39:33;7.90;92.10
71837;DHT22;59686;51.716;7.016;2023-02-02T03:41:59;8.00;92.20
71837;DHT22;59686;51.716;7.016;2023-02-02T03:44:24;7.90;92.10
71837;DHT22;59686;51.716;7.016;2023-02-02T03:46:53;7.90;92.20
71837;DHT22;59686;51.716;7.016;2023-02-02T03:49:24;7.90;92.20
71837;DHT22;59686;51.716;7.016;2023-02-02T03:51:49;7.90;92.20
71837;DHT22;59686;51.716;7.016;2023-02-02T03:54:15;7.90;92.20
71837;DHT22;59686;51.716;7.016;2023-02-02T03:56:41;7.90;92.20
71837;DHT22;59686;51.716;7.016;2023-02-02T03:59:06;7.90;92.20
71837;DHT22;59686;51.716;7.016;2023-02-02T04:01:32;7.90;92.70
71837;DHT22;59686;51.716;7.016;2023-02-02T04:03:58;7.90;92.30
71837;DHT22;59686;51.716;7.016;2023-02-02T04:06:24;8.00;92.30
71837;DHT22;59686;51.716;7.016;2023-02-02T04:08:50;8.00;92.30
71837;DHT22;59686;51.716;7.016;2023-02-02T04:11:16;7.90;92.60
71837;DHT22;59686;51.716;7.016;2023-02-02T04:13:42;7.90;92.20
71837;DHT22;59686;51.716;7.016;2023-02-02T04:16:08;7.90;92.30
71837;DHT22;59686;51.716;7.016;2023-02-02T04:18:35;8.00;92.20
71837;DHT22;59686;51.716;7.016;2023-02-02T04:21:04;7.90;92.30
71837;DHT22;59686;51.716;7.016;2023-02-02T04:23:31;7.90;92.10
71837;DHT22;59686;51.716;7.016;2023-02-02T04:26:07;7.90;92.40
71837;DHT22;59686;51.716;7.016;2023-02-02T04:28:33;7.90;92.50
71837;DHT22;59686;51.716;7.016;2023-02-02T04:30:59;7.90;92.50
71837;DHT22;59686;51.716;7.016;2023-02-02T04:33:26;7.90;92.40
71837;DHT22;59686;51.716;7.016;2023-02-02T04:35:52;7.90;92.40
71837;DHT22;59686;51.716;7.016;2023-02-02T04:38:18;7.90;92.50
71837;DHT22;59686;51.716;7.016;2023-02-02T04:40:46;8.00;92.50
71837;DHT22;59686;51.716;7.016;2023-02-02T04:43:13;7.90;92.50
71837;DHT22;59686;51.716;7.016;2023-02-02T04:45:38;8.00;92.50
71837;DHT22;59686;51.716;7.016;2023-02-02T04:48:08;8.00;92.50
71837;DHT22;59686;51.716;7.016;2023-02-02T04:50:34;7.90;92.30
71837;DHT22;59686;51.716;7.016;2023-02-02T04:52:59;7.90;92.30
71837;DHT22;59686;51.716;7.016;2023-02-02T04:55:37;7.90;92.30
71837;DHT22;59686;51.716;7.016;2023-02-02T04:58:04;7.90;92.40
71837;DHT22;59686;51.716;7.016;2023-02-02T05:00:29;7.90;92.30
71837;DHT22;59686;51.716;7.016;2023-02-02T05:03:02;7.90;92.50
71837;DHT22;59686;51.716;7.016;2023-02-02T05:05:28;7.90;92.60
71837;DHT22;59686;51.716;7.016;2023-02-02T05:07:53;7.90;92.60
71837;DHT22;59686;51.716;7.016;2023-02-02T05:10:19;7.90;92.40
71837;DHT22;59686;51.716;7.016;2023-02-02T05:12:45;7.90;92.60
71837;DHT22;59686;51.716;7.016;2023-02-02T05:15:10;7.90;92.40
71837;DHT22;59686;51.716;7.016;2023-02-02T05:17:36;7.90;92.60
71837;DHT22;59686;51.716;7.016;2023-02-02T05:20:02;8.00;92.50
71837;DHT22;59686;51.716;7.016;2023-02-02T05:22:27;7.90;92.50
71837;DHT22;59686;51.716;7.016;2023-02-02T05:24:53;8.00;92.70
71837;DHT22;59686;51.716;7.016;2023-02-02T05:27:19;8.00;92.40
71837;DHT22;59686;51.716;7.016;2023-02-02T05:29:46;8.00;92.50
71837;DHT22;59686;51.716;7.016;2023-02-02T05:32:19;7.90;92.30
71837;DHT22;59686;51.716;7.016;2023-02-02T05:34:44;8.00;92.30
71837;DHT22;59686;51.716;7.016;2023-02-02T05:37:10;8.10;92.30
71837;DHT22;59686;51.716;7.016;2023-02-02T05:39:36;8.00;92.50
71837;DHT22;59686;51.716;7.016;2023-02-02T05:42:01;8.00;92.30
71837;DHT22;59686;51.716;7.016;2023-02-02T05:44:27;8.00;92.40
71837;DHT22;59686;51.716;7.016;2023-02-02T05:46:52;8.00;92.30
71837;DHT22;59686;51.716;7.016;2023-02-02T05:49:18;8.00;92.50
71837;DHT22;59686;51.716;7.016;2023-02-02T05:51:46;8.00;92.50
71837;DHT22;59686;51.716;7.016;2023-02-02T05:54:13;8.00;92.40
71837;DHT22;59686;51.716;7.016;2023-02-02T05:56:44;8.10;92.60
71837;DHT22;59686;51.716;7.016;2023-02-02T05:59:09;7.90;92.50
71837;DHT22;59686;51.716;7.016;2023-02-02T06:01:35;7.90;92.70
71837;DHT22;59686;51.716;7.016;2023-02-02T06:04:01;8.00;92.80
71837;DHT22;59686;51.716;7.016;2023-02-02T06:06:26;8.00;92.60
71837;DHT22;59686;51.716;7.016;2023-02-02T06:08:52;8.00;92.50
71837;DHT22;59686;51.716;7.016;2023-02-02T06:11:18;8.00;92.50
71837;DHT22;59686;51.716;7.016;2023-02-02T06:13:56;8.00;92.60
71837;DHT22;59686;51.716;7.016;2023-02-02T06:16:22;8.00;92.50
71837;DHT22;59686;51.716;7.016;2023-02-02T06:18:48;8.10;92.70
71837;DHT22;59686;51.716;7.016;2023-02-02T06:21:14;8.20;92.80
71837;DHT22;59686;51.716;7.016;2023-02-02T06:23:40;8.00;92.70
71837;DHT22;59686;51.716;7.016;2023-02-02T06:26:17;8.00;92.70
71837;DHT22;59686;51.716;7.016;2023-02-02T06:28:47;8.10;92.80
71837;DHT22;59686;51.716;7.016;2023-02-02T06:31:13;8.00;92.80
71837;DHT22;59686;51.716;7.016;2023-02-02T06:33:47;8.00;92.80
71837;DHT22;59686;51.716;7.016;2023-02-02T06:36:13;8.00;92.60
71837;DHT22;59686;51.716;7.016;2023-02-02T06:38:39;8.00;92.70
71837;DHT22;59686;51.716;7.016;2023-02-02T06:41:04;8.10;92.60
71837;DHT22;59686;51.716;7.016;2023-02-02T06:43:31;8.00;92.60
71837;DHT22;59686;51.716;7.016;2023-02-02T06:45:57;8.00;92.70
71837;DHT22;59686;51.716;7.016;2023-02-02T06:48:25;8.10;92.60
71837;DHT22;59686;51.716;7.016;2023-02-02T06:50:51;8.10;92.70
71837;DHT22;59686;51.716;7.016;2023-02-02T06:53:17;8.00;92.80
71837;DHT22;59686;51.716;7.016;2023-02-02T06:55:54;8.00;92.70
71837;DHT22;59686;51.716;7.016;2023-02-02T06:58:21;7.90;92.70
71837;DHT22;59686;51.716;7.016;2023-02-02T07:00:47;8.00;92.80
71837;DHT22;59686;51.716;7.016;2023-02-02T07:03:16;8.10;92.80
71837;DHT22;59686;51.716;7.016;2023-02-02T07:05:42;8.10;92.90
71837;DHT22;59686;51.716;7.016;2023-02-02T07:08:08;8.10;92.80
71837;DHT22;59686;51.716;7.016;2023-02-02T07:10:36;8.00;92.60
71837;DHT22;59686;51.716;7.016;2023-02-02T07:13:02;8.10;92.70
71837;DHT22;59686;51.716;7.016;2023-02-02T07:15:28;8.10;92.70
71837;DHT22;59686;51.716;7.016;2023-02-02T07:17:54;8.10;92.80
71837;DHT22;59686;51.716;7.016;2023-02-02T07:20:19;8.10;92.80
71837;DHT22;59686;51.716;7.016;2023-02-02T07:22:45;8.10;93.00
71837;DHT22;59686;51.716;7.016;2023-02-02T07:25:11;8.10;93.00
71837;DHT22;59686;51.716;7.016;2023-02-02T07:27:36;8.10;92.90
71837;DHT22;59686;51.716;7.016;2023-02-02T07:30:02;8.10;92.80
71837;DHT22;59686;51.716;7.016;2023-02-02T07:32:28;8.10;92.80
71837;DHT22;59686;51.716;7.016;2023-02-02T07:34:54;8.00;93.00
71837;DHT22;59686;51.716;7.016;2023-02-02T07:37:19;8.10;92.90
71837;DHT22;59686;51.716;7.016;2023-02-02T07:39:45;8.10;93.00
71837;DHT22;59686;51.716;7.016;2023-02-02T07:42:11;8.10;92.70
71837;DHT22;59686;51.716;7.016;2023-02-02T07:44:37;8.10;92.80
71837;DHT22;59686;51.716;7.016;2023-02-02T07:47:10;8.10;92.70
71837;DHT22;59686;51.716;7.016;2023-02-02T07:49:36;8.10;92.80
71837;DHT22;59686;51.716;7.016;2023-02-02T07:52:01;8.00;92.80
71837;DHT22;59686;51.716;7.016;2023-02-02T07:54:27;8.10;92.90
71837;DHT22;59686;51.716;7.016;2023-02-02T07:56:53;8.10;92.80
71837;DHT22;59686;51.716;7.016;2023-02-02T07:59:18;8.10;92.90
71837;DHT22;59686;51.716;7.016;2023-02-02T08:01:44;8.10;92.80
71837;DHT22;59686;51.716;7.016;2023-02-02T08:04:10;8.10;92.70
71837;DHT22;59686;51.716;7.016;2023-02-02T08:06:37;8.10;93.00
71837;DHT22;59686;51.716;7.016;2023-02-02T08:09:12;8.10;93.00
71837;DHT22;59686;51.716;7.016;2023-02-02T08:11:38;8.20;93.10
71837;DHT22;59686;51.716;7.016;2023-02-02T08:14:04;8.20;93.10
71837;DHT22;59686;51.716;7.016;2023-02-02T08:16:31;8.10;93.00
71837;DHT22;59686;51.716;7.016;2023-02-02T08:18:57;8.20;92.90
71837;DHT22;59686;51.716;7.016;2023-02-02T08:21:24;8.10;93.00
71837;DHT22;59686;51.716;7.016;2023-02-02T08:23:51;8.10;92.90
71837;DHT22;59686;51.716;7.016;2023-02-02T08:26:20;8.20;92.90
71837;DHT22;59686;51.716;7.016;2023-02-02T08:28:50;8.20;93.10
71837;DHT22;59686;51.716;7.016;2023-02-02T08:31:20;8.20;93.10
71837;DHT22;59686;51.716;7.016;2023-02-02T08:33:46;8.20;93.00
71837;DHT22;59686;51.716;7.016;2023-02-02T08:36:13;8.20;93.00
71837;DHT22;59686;51.716;7.016;2023-02-02T08:38:39;8.20;93.00
71837;DHT22;59686;51.716;7.016;2023-02-02T08:41:07;8.20;93.00
71837;DHT22;59686;51.716;7.016;2023-02-02T08:43:33;8.10;93.00
71837;DHT22;59686;51.716;7.016;2023-02-02T08:45:58;8.20;93.20
71837;DHT22;59686;51.716;7.016;2023-02-02T08:48:24;8.30;93.30
71837;DHT22;59686;51.716;7.016;2023-02-02T08:50:54;8.20;93.30
71837;DHT22;59686;51.716;7.016;2023-02-02T08:53:21;8.20;93.30
71837;DHT22;59686;51.716;7.016;2023-02-02T08:55:47;8.20;93.30
71837;DHT22;59686;51.716;7.016;2023-02-02T08:58:13;8.10;93.20
71837;DHT22;59686;51.716;7.016;2023-02-02T09:00:39;8.10;93.30
71837;DHT22;59686;51.716;7.016;2023-02-02T09:03:05;8.20;93.70
71837;DHT22;59686;51.716;7.016;2023-02-02T09:05:31;8.10;93.20
71837;DHT22;59686;51.716;7.016;2023-02-02T09:07:57;8.20;93.30
71837;DHT22;59686;51.716;7.016;2023-02-02T09:10:27;8.20;93.40
71837;DHT22;59686;51.716;7.016;2023-02-02T09:12:52;8.20;93.40
71837;DHT22;59686;51.716;7.016;2023-02-02T09:15:18;8.20;93.50
71837;DHT22;59686;51.716;7.016;2023-02-02T09:17:44;8.20;93.20
71837;DHT22;59686;51.716;7.016;2023-02-02T09:20:10;8.20;93.30
71837;DHT22;59686;51.716;7.016;2023-02-02T09:22:35;8.20;93.20
71837;DHT22;59686;51.716;7.016;2023-02-02T09:25:14;8.20;93.20
71837;DHT22;59686;51.716;7.016;2023-02-02T09:27:39;8.20;93.60
71837;DHT22;59686;51.716;7.016;2023-02-02T09:30:07;8.20;93.40
71837;DHT22;59686;51.716;7.016;2023-02-02T09:32:33;8.20;93.20
71837;DHT22;59686;51.716;7.016;2023-02-02T09:34:58;8.20;93.30
71837;DHT22;59686;51.716;7.016;2023-02-02T09:37:25;8.30;93.40
71837;DHT22;59686;51.716;7.016;2023-02-02T09:40:15;8.20;93.20
71837;DHT22;59686;51.716;7.016;2023-02-02T09:45:46;8.20;93.40
71837;DHT22;59686;51.716;7.016;2023-02-02T09:48:40;8.30;93.60
71837;DHT22;59686;51.716;7.016;2023-02-02T09:51:12;8.30;93.60
71837;DHT22;59686;51.716;7.016;2023-02-02T09:54:01;8.30;93.60
71837;DHT22;59686;51.716;7.016;2023-02-02T09:56:49;8.30;93.50
71837;DHT22;59686;51.716;7.016;2023-02-02T09:59:21;8.30;93.60
71837;DHT22;59686;51.716;7.016;2023-02-02T10:01:52;8.30;93.50
71837;DHT22;59686;51.716;7.016;2023-02-02T10:04:26;8.30;93.40
71837;DHT22;59686;51.716;7.016;2023-02-02T10:06:57;8.30;93.50
71837;DHT22;59686;51.716;7.016;2023-02-02T10:09:46;8.30;93.60
71837;DHT22;59686;51.716;7.016;2023-02-02T10:15:10;8.30;93.60
71837;DHT22;59686;51.716;7.016;2023-02-02T10:17:56;8.30;93.60
71837;DHT22;59686;51.716;7.016;2023-02-02T10:23:05;8.30;93.60
71837;DHT22;59686;51.716;7.016;2023-02-02T10:25:34;8.30;93.60
71837;DHT22;59686;51.716;7.016;2023-02-02T10:28:05;8.30;93.60
71837;DHT22;59686;51.716;7.016;2023-02-02T10:30:46;8.40;93.50
71837;DHT22;59686;51.716;7.016;2023-02-02T10:38:55;8.40;93.50
71837;DHT22;59686;51.716;7.016;2023-02-02T10:41:29;8.30;93.40
71837;DHT22;59686;51.716;7.016;2023-02-02T10:46:34;8.30;93.40
71837;DHT22;59686;51.716;7.016;2023-02-02T10:49:28;8.40;93.50
71837;DHT22;59686;51.716;7.016;2023-02-02T10:51:58;8.30;93.40
71837;DHT22;59686;51.716;7.016;2023-02-02T10:54:46;8.40;93.30
71837;DHT22;59686;51.716;7.016;2023-02-02T10:57:18;8.40;93.30
71837;DHT22;59686;51.716;7.016;2023-02-02T11:02:39;8.40;93.30
71837;DHT22;59686;51.716;7.016;2023-02-02T11:05:05;8.30;93.20
71837;DHT22;59686;51.716;7.016;2023-02-02T11:07:52;8.40;93.20
71837;DHT22;59686;51.716;7.016;2023-02-02T11:10:18;8.40;93.40
71837;DHT22;59686;51.716;7.016;2023-02-02T11:12:54;8.40;93.40
71837;DHT22;59686;51.716;7.016;2023-02-02T11:15:28;8.40;93.40
71837;DHT22;59686;51.716;7.016;2023-02-02T11:17:54;8.40;93.20
71837;DHT22;59686;51.716;7.016;2023-02-02T11:20:34;8.40;93.50
71837;DHT22;59686;51.716;7.016;2023-02-02T11:23:04;8.40;93.60
71837;DHT22;59686;51.716;7.016;2023-02-02T11:25:38;8.40;93.50
71837;DHT22;59686;51.716;7.016;2023-02-02T11:28:21;8.40;93.50
71837;DHT22;59686;51.716;7.016;2023-02-02T11:30:50;8.40;93.40
71837;DHT22;59686;51.716;7.016;2023-02-02T11:35:53;8.40;93.40
71837;DHT22;59686;51.716;7.016;2023-02-02T11:38:19;8.40;93.50
71837;DHT22;59686;51.716;7.016;2023-02-02T11:41:06;8.50;93.30
71837;DHT22;59686;51.716;7.016;2023-02-02T11:43:50;8.50;93.40
71837;DHT22;59686;51.716;7.016;2023-02-02T11:46:25;8.40;93.20
71837;DHT22;59686;51.716;7.016;2023-02-02T11:49:06;8.50;93.30
71837;DHT22;59686;51.716;7.016;2023-02-02T11:51:38;8.50;93.20
71837;DHT22;59686;51.716;7.016;2023-02-02T11:54:19;8.50;93.30
71837;DHT22;59686;51.716;7.016;2023-02-02T11:56:49;8.50;93.10
71837;DHT22;59686;51.716;7.016;2023-02-02T11:59:48;8.30;93.10
71837;DHT22;59686;51.716;7.016;2023-02-02T12:02:30;8.50;93.10
71837;DHT22;59686;51.716;7.016;2023-02-02T12:07:34;8.50;93.10
71837;DHT22;59686;51.716;7.016;2023-02-02T12:12:57;8.50;93.10
71837;DHT22;59686;51.716;7.016;2023-02-02T12:21:04;8.50;93.30
71837;DHT22;59686;51.716;7.016;2023-02-02T12:23:59;8.50;93.30
71837;DHT22;59686;51.716;7.016;2023-02-02T12:26:34;8.50;93.20
71837;DHT22;59686;51.716;7.016;2023-02-02T12:37:02;8.50;93.20
71837;DHT22;59686;51.716;7.016;2023-02-02T12:48:16;8.50;93.30
71837;DHT22;59686;51.716;7.016;2023-02-02T12:59:18;8.50;93.30
71837;DHT22;59686;51.716;7.016;2023-02-02T13:01:57;8.50;93.30
71837;DHT22;59686;51.716;7.016;2023-02-02T13:07:40;8.50;93.20
71837;DHT22;59686;51.716;7.016;2023-02-02T13:10:52;8.50;93.30
71837;DHT22;59686;51.716;7.016;2023-02-02T13:13:03;8.50;93.70
71837;DHT22;59686;51.716;7.016;2023-02-02T13:15:41;8.50;93.50
71837;DHT22;59686;51.716;7.016;2023-02-02T13:18:19;8.50;93.50
71837;DHT22;59686;51.716;7.016;2023-02-02T13:21:04;8.60;93.80
71837;DHT22;59686;51.716;7.016;2023-02-02T13:23:43;8.50;93.50
71837;DHT22;59686;51.716;7.016;2023-02-02T13:26:20;8.60;93.30
71837;DHT22;59686;51.716;7.016;2023-02-02T13:29:06;8.60;93.20
71837;DHT22;59686;51.716;7.016;2023-02-02T13:34:42;8.60;93.40
71837;DHT22;59686;51.716;7.016;2023-02-02T13:37:33;8.60;93.40
71837;DHT22;59686;51.716;7.016;2023-02-02T13:40:28;8.60;93.60
71837;DHT22;59686;51.716;7.016;2023-02-02T13:44:36;8.70;93.40
71837;DHT22;59686;51.716;7.016;2023-02-02T13:46:56;8.60;93.40
71837;DHT22;59686;51.716;7.016;2023-02-02T13:49:36;8.60;93.40
71837;DHT22;59686;51.716;7.016;2023-02-02T13:55:26;8.60;93.50
71837;DHT22;59686;51.716;7.016;2023-02-02T13:58:06;8.60;93.50
71837;DHT22;59686;51.716;7.016;2023-02-02T14:03:27;8.60;93.40
71837;DHT22;59686;51.716;7.016;2023-02-02T14:06:14;8.60;93.40
71837;DHT22;59686;51.716;7.016;2023-02-02T14:11:43;8.60;93.40
71837;DHT22;59686;51.716;7.016;2023-02-02T14:14:18;8.60;93.40
71837;DHT22;59686;51.716;7.016;2023-02-02T14:24:39;8.50;93.30
71837;DHT22;59686;51.716;7.016;2023-02-02T14:34:44;8.60;93.60
71837;DHT22;59686;51.716;7.016;2023-02-02T14:45:39;8.60;93.40
71837;DHT22;59686;51.716;7.016;2023-02-02T14:53:19;8.60;93.60
71837;DHT22;59686;51.716;7.016;2023-02-02T14:55:58;8.60;93.80
71837;DHT22;59686;51.716;7.016;2023-02-02T14:58:43;8.60;93.50
71837;DHT22;59686;51.716;7.016;2023-02-02T15:04:30;8.60;93.60
71837;DHT22;59686;51.716;7.016;2023-02-02T15:07:35;8.60;93.50
71837;DHT22;59686;51.716;7.016;2023-02-02T15:10:00;8.60;93.60
71837;DHT22;59686;51.716;7.016;2023-02-02T15:13:05;8.70;93.60
71837;DHT22;59686;51.716;7.016;2023-02-02T15:15:32;8.70;93.70
71837;DHT22;59686;51.716;7.016;2023-02-02T15:18:14;8.60;94.00
71837;DHT22;59686;51.716;7.016;2023-02-02T15:20:45;8.50;93.50
71837;DHT22;59686;51.716;7.016;2023-02-02T15:23:37;8.70;93.70
71837;DHT22;59686;51.716;7.016;2023-02-02T15:26:23;8.60;93.60
71837;DHT22;59686;51.716;7.016;2023-02-02T15:31:25;8.70;93.50
71837;DHT22;59686;51.716;7.016;2023-02-02T15:33:58;8.70;93.60
71837;DHT22;59686;51.716;7.016;2023-02-02T15:36:33;8.80;93.50
71837;DHT22;59686;51.716;7.016;2023-02-02T15:41:53;8.70;93.60
71837;DHT22;59686;51.716;7.016;2023-02-02T15:44:39;8.80;93.70
71837;DHT22;59686;51.716;7.016;2023-02-02T15:47:17;8.70;93.70
71837;DHT22;59686;51.716;7.016;2023-02-02T15:49:44;8.70;93.80
71837;DHT22;59686;51.716;7.016;2023-02-02T15:52:16;8.60;93.70
71837;DHT22;59686;51.716;7.016;2023-02-02T15:54:56;8.70;93.80
71837;DHT22;59686;51.716;7.016;2023-02-02T15:57:33;8.70;93.70
71837;DHT22;59686;51.716;7.016;2023-02-02T16:02:44;8.70;93.70
71837;DHT22;59686;51.716;7.016;2023-02-02T16:07:58;8.70;93.50
71837;DHT22;59686;51.716;7.016;2023-02-02T16:10:24;8.70;93.60
71837;DHT22;59686;51.716;7.016;2023-02-02T16:12:50;8.70;93.60
71837;DHT22;59686;51.716;7.016;2023-02-02T16:15:22;8.70;93.60
71837;DHT22;59686;51.716;7.016;2023-02-02T16:18:02;8.70;93.60
71837;DHT22;59686;51.716;7.016;2023-02-02T16:20:32;8.70;93.50
71837;DHT22;59686;51.716;7.016;2023-02-02T16:23:01;8.70;93.60
71837;DHT22;59686;51.716;7.016;2023-02-02T16:25:31;8.70;93.70
71837;DHT22;59686;51.716;7.016;2023-02-02T16:27:58;8.80;93.70
71837;DHT22;59686;51.716;7.016;2023-02-02T16:30:37;8.70;93.70
71837;DHT22;59686;51.716;7.016;2023-02-02T16:33:38;8.70;94.00
71837;DHT22;59686;51.716;7.016;2023-02-02T16:36:23;8.70;93.80
71837;DHT22;59686;51.716;7.016;2023-02-02T16:38:49;8.60;93.70
71837;DHT22;59686;51.716;7.016;2023-02-02T16:41:34;8.70;93.80
71837;DHT22;59686;51.716;7.016;2023-02-02T16:44:38;8.70;93.60
71837;DHT22;59686;51.716;7.016;2023-02-02T16:47:06;8.70;93.50
71837;DHT22;59686;51.716;7.016;2023-02-02T16:49:33;8.70;93.60
71837;DHT22;59686;51.716;7.016;2023-02-02T16:52:29;8.80;93.50
71837;DHT22;59686;51.716;7.016;2023-02-02T16:54:56;8.70;93.60
71837;DHT22;59686;51.716;7.016;2023-02-02T16:59:52;8.80;93.80
71837;DHT22;59686;51.716;7.016;2023-02-02T17:02:29;8.70;93.70
71837;DHT22;59686;51.716;7.016;2023-02-02T17:05:14;8.70;93.80
71837;DHT22;59686;51.716;7.016;2023-02-02T17:07:46;8.70;93.70
71837;DHT22;59686;51.716;7.016;2023-02-02T17:12:43;8.70;93.70
71837;DHT22;59686;51.716;7.016;2023-02-02T17:15:30;8.70;93.80
71837;DHT22;59686;51.716;7.016;2023-02-02T17:17:56;8.70;93.60
71837;DHT22;59686;51.716;7.016;2023-02-02T17:20:22;8.70;93.60
71837;DHT22;59686;51.716;7.016;2023-02-02T17:23:01;8.70;93.60
71837;DHT22;59686;51.716;7.016;2023-02-02T17:25:36;8.80;93.70
71837;DHT22;59686;51.716;7.016;2023-02-02T17:28:05;8.80;93.60
71837;DHT22;59686;51.716;7.016;2023-02-02T17:30:32;8.80;93.60
71837;DHT22;59686;51.716;7.016;2023-02-02T17:32:58;8.70;93.50
71837;DHT22;59686;51.716;7.016;2023-02-02T17:35:25;8.80;93.70
71837;DHT22;59686;51.716;7.016;2023-02-02T17:37:51;8.80;93.70
71837;DHT22;59686;51.716;7.016;2023-02-02T17:40:20;8.80;93.70
71837;DHT22;59686;51.716;7.016;2023-02-02T17:42:49;8.70;93.80
71837;DHT22;59686;51.716;7.016;2023-02-02T17:45:21;8.70;93.70
71837;DHT22;59686;51.716;7.016;2023-02-02T17:47:53;8.70;93.70
71837;DHT22;59686;51.716;7.016;2023-02-02T17:50:19;8.70;93.70
71837;DHT22;59686;51.716;7.016;2023-02-02T17:52:46;8.70;93.90
71837;DHT22;59686;51.716;7.016;2023-02-02T17:57:53;8.80;93.60
71837;DHT22;59686;51.716;7.016;2023-02-02T18:00:21;8.80;93.70
71837;DHT22;59686;51.716;7.016;2023-02-02T18:02:49;8.80;93.70
71837;DHT22;59686;51.716;7.016;2023-02-02T18:05:15;8.70;93.80
71837;DHT22;59686;51.716;7.016;2023-02-02T18:07:41;8.80;93.80
71837;DHT22;59686;51.716;7.016;2023-02-02T18:10:12;8.70;93.80
71837;DHT22;59686;51.716;7.016;2023-02-02T18:12:39;8.80;93.90
71837;DHT22;59686;51.716;7.016;2023-02-02T18:15:07;8.70;93.90
71837;DHT22;59686;51.716;7.016;2023-02-02T18:17:33;8.70;94.00
71837;DHT22;59686;51.716;7.016;2023-02-02T18:20:03;8.70;93.80
71837;DHT22;59686;51.716;7.016;2023-02-02T18:22:29;8.80;93.90
71837;DHT22;59686;51.716;7.016;2023-02-02T18:24:55;8.80;93.90
71837;DHT22;59686;51.716;7.016;2023-02-02T18:27:23;8.80;94.30
71837;DHT22;59686;51.716;7.016;2023-02-02T18:29:49;8.80;94.00
71837;DHT22;59686;51.716;7.016;2023-02-02T18:32:15;8.80;93.90
71837;DHT22;59686;51.716;7.016;2023-02-02T18:34:43;8.80;94.00
71837;DHT22;59686;51.716;7.016;2023-02-02T18:37:09;8.80;94.00
71837;DHT22;59686;51.716;7.016;2023-02-02T18:39:35;8.70;94.00
71837;DHT22;59686;51.716;7.016;2023-02-02T18:42:01;8.80;94.00